Des Moines, Iowa
Current Conditions -  °F | °C
As of 9:54 PM on Friday 19 Dec 2014 (Local Time) from KDSM Reporting Station
Freezing Drizzle Freezing Drizzle  
Wind Chill: 25°   Ceiling: 900
Heat Index: 32°   Visibility: 4mi
Dew Point: 29°   Wind: 8mph
Humidity: 88%   Direction: 150°SSE
Pressure: 30.19"   Gusts: NA
Location:  41.59°N, 93.61°W
Report Text: KDSM 200354Z 15007KT 4SM -FZDZ BR OVC009 00/M02 A3019 RMK AO2 FZDZB26 CIG 006V012 SLP235 P0000 I1000 T00001017
Loading
Personal Weather Stations






























Interactive Weather Map New forecast layout! Learn more

10-Day Weather Forecast

Advertisements
Track Severe Weather on mobile